sensor_id;sensor_type;location;lat;lon;timestamp;temperature;humidity
78884;SHT31;68262;51.968;5.672;2023-03-30T00:02:19;14.8;62.7
78884;SHT31;68262;51.968;5.672;2023-03-30T00:04:49;14.8;62.6
78884;SHT31;68262;51.968;5.672;2023-03-30T00:07:19;14.9;62.5
78884;SHT31;68262;51.968;5.672;2023-03-30T00:09:48;14.9;62.5
78884;SHT31;68262;51.968;5.672;2023-03-30T00:12:22;14.9;62.3
78884;SHT31;68262;51.968;5.672;2023-03-30T00:14:56;14.9;62.3
78884;SHT31;68262;51.968;5.672;2023-03-30T00:17:26;14.9;62.4
78884;SHT31;68262;51.968;5.672;2023-03-30T00:19:56;14.9;62.3
78884;SHT31;68262;51.968;5.672;2023-03-30T00:22:30;14.9;61.9
78884;SHT31;68262;51.968;5.672;2023-03-30T00:24:59;14.9;61.3
78884;SHT31;68262;51.968;5.672;2023-03-30T00:27:29;14.9;61.3
78884;SHT31;68262;51.968;5.672;2023-03-30T00:29:59;15.0;61.3
78884;SHT31;68262;51.968;5.672;2023-03-30T00:32:28;15.0;61.2
78884;SHT31;68262;51.968;5.672;2023-03-30T00:34:58;15.0;61.0
78884;SHT31;68262;51.968;5.672;2023-03-30T00:37:28;15.0;61.1
78884;SHT31;68262;51.968;5.672;2023-03-30T00:39:58;15.0;60.8
78884;SHT31;68262;51.968;5.672;2023-03-30T00:42:28;15.0;60.6
78884;SHT31;68262;51.968;5.672;2023-03-30T00:45:14;15.0;60.4
78884;SHT31;68262;51.968;5.672;2023-03-30T00:47:49;15.0;60.3
78884;SHT31;68262;51.968;5.672;2023-03-30T00:50:23;15.0;60.2
78884;SHT31;68262;51.968;5.672;2023-03-30T00:52:55;15.1;60.1
78884;SHT31;68262;51.968;5.672;2023-03-30T00:55:30;15.1;60.1
78884;SHT31;68262;51.968;5.672;2023-03-30T00:58:02;15.1;59.9
78884;SHT31;68262;51.968;5.672;2023-03-30T01:00:33;15.1;59.9
78884;SHT31;68262;51.968;5.672;2023-03-30T01:03:10;15.1;59.7
78884;SHT31;68262;51.968;5.672;2023-03-30T01:05:44;15.1;59.9
78884;SHT31;68262;51.968;5.672;2023-03-30T01:08:17;15.2;59.6
78884;SHT31;68262;51.968;5.672;2023-03-30T01:10:50;15.2;59.6
78884;SHT31;68262;51.968;5.672;2023-03-30T01:13:22;15.2;59.5
78884;SHT31;68262;51.968;5.672;2023-03-30T01:16:05;15.2;59.4
78884;SHT31;68262;51.968;5.672;2023-03-30T01:18:48;15.2;59.5
78884;SHT31;68262;51.968;5.672;2023-03-30T01:30:12;15.2;59.4
78884;SHT31;68262;51.968;5.672;2023-03-30T01:39:41;15.2;59.6
78884;SHT31;68262;51.968;5.672;2023-03-30T01:42:21;15.3;59.3
78884;SHT31;68262;51.968;5.672;2023-03-30T01:45:02;15.3;59.3
78884;SHT31;68262;51.968;5.672;2023-03-30T01:47:39;15.3;59.2
78884;SHT31;68262;51.968;5.672;2023-03-30T01:50:14;15.3;58.7
78884;SHT31;68262;51.968;5.672;2023-03-30T01:52:53;15.3;58.7
78884;SHT31;68262;51.968;5.672;2023-03-30T01:55:30;15.3;58.4
78884;SHT31;68262;51.968;5.672;2023-03-30T01:58:07;15.3;58.7
78884;SHT31;68262;51.968;5.672;2023-03-30T02:00:41;15.3;58.3
78884;SHT31;68262;51.968;5.672;2023-03-30T02:03:16;15.4;58.3
78884;SHT31;68262;51.968;5.672;2023-03-30T02:05:52;15.4;57.9
78884;SHT31;68262;51.968;5.672;2023-03-30T02:08:25;15.4;58.0
78884;SHT31;68262;51.968;5.672;2023-03-30T02:10:58;15.4;57.6
78884;SHT31;68262;51.968;5.672;2023-03-30T02:13:30;15.4;57.5
78884;SHT31;68262;51.968;5.672;2023-03-30T02:16:05;15.4;57.6
78884;SHT31;68262;51.968;5.672;2023-03-30T02:18:37;15.4;57.4
78884;SHT31;68262;51.968;5.672;2023-03-30T02:21:07;15.4;57.3
78884;SHT31;68262;51.968;5.672;2023-03-30T02:23:41;15.4;57.5
78884;SHT31;68262;51.968;5.672;2023-03-30T02:26:13;15.4;57.3
78884;SHT31;68262;51.968;5.672;2023-03-30T02:28:44;15.4;57.5
78884;SHT31;68262;51.968;5.672;2023-03-30T02:31:15;15.3;57.6
78884;SHT31;68262;51.968;5.672;2023-03-30T02:33:59;15.3;57.6
78884;SHT31;68262;51.968;5.672;2023-03-30T02:36:48;15.3;57.6
78884;SHT31;68262;51.968;5.672;2023-03-30T02:39:28;15.2;57.7
78884;SHT31;68262;51.968;5.672;2023-03-30T02:42:23;15.2;57.8
78884;SHT31;68262;51.968;5.672;2023-03-30T02:45:11;15.1;58.0
78884;SHT31;68262;51.968;5.672;2023-03-30T02:47:54;15.1;58.4
78884;SHT31;68262;51.968;5.672;2023-03-30T02:50:32;15.1;58.5
78884;SHT31;68262;51.968;5.672;2023-03-30T02:53:08;15.1;58.9
78884;SHT31;68262;51.968;5.672;2023-03-30T02:55:49;15.1;59.2
78884;SHT31;68262;51.968;5.672;2023-03-30T02:58:32;15.1;59.4
78884;SHT31;68262;51.968;5.672;2023-03-30T03:01:08;15.1;59.4
78884;SHT31;68262;51.968;5.672;2023-03-30T03:03:42;15.1;59.7
78884;SHT31;68262;51.968;5.672;2023-03-30T03:06:14;15.2;59.7
78884;SHT31;68262;51.968;5.672;2023-03-30T03:08:44;15.2;59.7
78884;SHT31;68262;51.968;5.672;2023-03-30T03:11:16;15.2;59.7
78884;SHT31;68262;51.968;5.672;2023-03-30T03:13:45;15.3;59.9
78884;SHT31;68262;51.968;5.672;2023-03-30T03:16:15;15.3;59.8
78884;SHT31;68262;51.968;5.672;2023-03-30T03:18:44;15.3;59.9
78884;SHT31;68262;51.968;5.672;2023-03-30T03:21:15;15.4;60.1
78884;SHT31;68262;51.968;5.672;2023-03-30T03:23:45;15.4;60.5
78884;SHT31;68262;51.968;5.672;2023-03-30T03:26:16;15.4;60.8
78884;SHT31;68262;51.968;5.672;2023-03-30T03:28:46;15.4;61.1
78884;SHT31;68262;51.968;5.672;2023-03-30T03:31:15;15.4;61.6
78884;SHT31;68262;51.968;5.672;2023-03-30T03:33:45;15.4;61.9
78884;SHT31;68262;51.968;5.672;2023-03-30T03:36:15;15.4;61.9
78884;SHT31;68262;51.968;5.672;2023-03-30T03:38:45;15.4;61.9
78884;SHT31;68262;51.968;5.672;2023-03-30T03:41:15;15.4;61.8
78884;SHT31;68262;51.968;5.672;2023-03-30T03:43:45;15.4;61.8
78884;SHT31;68262;51.968;5.672;2023-03-30T03:46:16;15.4;62.0
78884;SHT31;68262;51.968;5.672;2023-03-30T03:48:46;15.4;62.2
78884;SHT31;68262;51.968;5.672;2023-03-30T03:51:15;15.4;62.3
78884;SHT31;68262;51.968;5.672;2023-03-30T03:53:45;15.4;62.5
78884;SHT31;68262;51.968;5.672;2023-03-30T03:56:16;15.4;62.4
78884;SHT31;68262;51.968;5.672;2023-03-30T03:58:45;15.4;62.3
78884;SHT31;68262;51.968;5.672;2023-03-30T04:01:15;15.4;62.4
78884;SHT31;68262;51.968;5.672;2023-03-30T04:03:45;15.4;62.3
78884;SHT31;68262;51.968;5.672;2023-03-30T04:06:16;15.4;62.3
78884;SHT31;68262;51.968;5.672;2023-03-30T04:08:45;15.4;62.2
78884;SHT31;68262;51.968;5.672;2023-03-30T04:11:15;15.4;62.3
78884;SHT31;68262;51.968;5.672;2023-03-30T04:13:45;15.4;62.2
78884;SHT31;68262;51.968;5.672;2023-03-30T04:16:16;15.5;62.3
78884;SHT31;68262;51.968;5.672;2023-03-30T04:18:45;15.5;62.3
78884;SHT31;68262;51.968;5.672;2023-03-30T04:21:15;15.5;62.3
78884;SHT31;68262;51.968;5.672;2023-03-30T04:23:46;15.5;62.3
78884;SHT31;68262;51.968;5.672;2023-03-30T04:26:16;15.5;62.5
78884;SHT31;68262;51.968;5.672;2023-03-30T04:28:48;15.5;62.7
78884;SHT31;68262;51.968;5.672;2023-03-30T04:31:20;15.6;62.8
78884;SHT31;68262;51.968;5.672;2023-03-30T04:33:50;15.6;62.8
78884;SHT31;68262;51.968;5.672;2023-03-30T04:36:20;15.6;62.8
78884;SHT31;68262;51.968;5.672;2023-03-30T04:38:50;15.6;62.9
78884;SHT31;68262;51.968;5.672;2023-03-30T04:41:29;15.6;63.0
78884;SHT31;68262;51.968;5.672;2023-03-30T04:44:02;15.6;63.0
78884;SHT31;68262;51.968;5.672;2023-03-30T04:46:32;15.6;63.0
78884;SHT31;68262;51.968;5.672;2023-03-30T04:49:03;15.6;63.1
78884;SHT31;68262;51.968;5.672;2023-03-30T04:51:32;15.6;63.3
78884;SHT31;68262;51.968;5.672;2023-03-30T04:54:03;15.6;63.6
78884;SHT31;68262;51.968;5.672;2023-03-30T04:56:33;15.6;64.4
78884;SHT31;68262;51.968;5.672;2023-03-30T04:59:03;15.5;65.9
78884;SHT31;68262;51.968;5.672;2023-03-30T05:01:34;15.5;66.1
78884;SHT31;68262;51.968;5.672;2023-03-30T05:04:04;15.4;66.3
78884;SHT31;68262;51.968;5.672;2023-03-30T05:06:33;15.3;66.5
78884;SHT31;68262;51.968;5.672;2023-03-30T05:09:03;15.2;66.7
78884;SHT31;68262;51.968;5.672;2023-03-30T05:11:32;15.1;67.0
78884;SHT31;68262;51.968;5.672;2023-03-30T05:14:02;15.1;67.6
78884;SHT31;68262;51.968;5.672;2023-03-30T05:16:33;15.0;69.2
78884;SHT31;68262;51.968;5.672;2023-03-30T05:19:03;14.9;70.0
78884;SHT31;68262;51.968;5.672;2023-03-30T05:21:34;14.8;70.6
78884;SHT31;68262;51.968;5.672;2023-03-30T05:24:03;14.7;71.1
78884;SHT31;68262;51.968;5.672;2023-03-30T05:26:33;14.6;71.2
78884;SHT31;68262;51.968;5.672;2023-03-30T05:29:03;14.6;71.5
78884;SHT31;68262;51.968;5.672;2023-03-30T05:31:33;14.5;71.7
78884;SHT31;68262;51.968;5.672;2023-03-30T05:34:03;14.4;72.1
78884;SHT31;68262;51.968;5.672;2023-03-30T05:36:33;14.4;72.1
78884;SHT31;68262;51.968;5.672;2023-03-30T05:39:04;14.4;72.2
78884;SHT31;68262;51.968;5.672;2023-03-30T05:41:33;14.3;72.2
78884;SHT31;68262;51.968;5.672;2023-03-30T05:44:03;14.3;72.2
78884;SHT31;68262;51.968;5.672;2023-03-30T05:46:33;14.3;72.2
78884;SHT31;68262;51.968;5.672;2023-03-30T05:49:03;14.2;72.2
78884;SHT31;68262;51.968;5.672;2023-03-30T05:51:32;14.2;72.4
78884;SHT31;68262;51.968;5.672;2023-03-30T05:54:02;14.2;72.5
78884;SHT31;68262;51.968;5.672;2023-03-30T05:56:31;14.2;72.5
78884;SHT31;68262;51.968;5.672;2023-03-30T05:59:01;14.2;72.7
78884;SHT31;68262;51.968;5.672;2023-03-30T06:01:31;14.2;72.7
78884;SHT31;68262;51.968;5.672;2023-03-30T06:04:01;14.2;72.6
78884;SHT31;68262;51.968;5.672;2023-03-30T06:06:31;14.2;72.6
78884;SHT31;68262;51.968;5.672;2023-03-30T06:09:00;14.3;72.4
78884;SHT31;68262;51.968;5.672;2023-03-30T06:11:31;14.3;72.3
78884;SHT31;68262;51.968;5.672;2023-03-30T06:14:01;14.3;72.1
78884;SHT31;68262;51.968;5.672;2023-03-30T06:16:30;14.4;71.9
78884;SHT31;68262;51.968;5.672;2023-03-30T06:19:00;14.4;71.9
78884;SHT31;68262;51.968;5.672;2023-03-30T06:21:30;14.4;71.3
78884;SHT31;68262;51.968;5.672;2023-03-30T06:23:59;14.4;71.2
78884;SHT31;68262;51.968;5.672;2023-03-30T06:26:29;14.4;70.7
78884;SHT31;68262;51.968;5.672;2023-03-30T06:28:59;14.4;70.6
78884;SHT31;68262;51.968;5.672;2023-03-30T06:31:30;14.5;70.3
78884;SHT31;68262;51.968;5.672;2023-03-30T06:34:00;14.5;70.3
78884;SHT31;68262;51.968;5.672;2023-03-30T06:36:29;14.5;70.3
78884;SHT31;68262;51.968;5.672;2023-03-30T06:39:01;14.5;70.3
78884;SHT31;68262;51.968;5.672;2023-03-30T06:41:31;14.5;70.5
78884;SHT31;68262;51.968;5.672;2023-03-30T06:44:01;14.6;70.5
78884;SHT31;68262;51.968;5.672;2023-03-30T06:46:32;14.6;70.5
78884;SHT31;68262;51.968;5.672;2023-03-30T06:49:02;14.6;70.2
78884;SHT31;68262;51.968;5.672;2023-03-30T06:51:31;14.6;70.2
78884;SHT31;68262;51.968;5.672;2023-03-30T06:54:02;14.6;69.7
78884;SHT31;68262;51.968;5.672;2023-03-30T06:56:31;14.6;68.7
78884;SHT31;68262;51.968;5.672;2023-03-30T06:59:01;14.6;68.2
78884;SHT31;68262;51.968;5.672;2023-03-30T07:01:31;14.6;67.0
78884;SHT31;68262;51.968;5.672;2023-03-30T07:04:01;14.6;67.0
78884;SHT31;68262;51.968;5.672;2023-03-30T07:06:32;14.6;66.8
78884;SHT31;68262;51.968;5.672;2023-03-30T07:09:02;14.6;66.7
78884;SHT31;68262;51.968;5.672;2023-03-30T07:11:32;14.6;66.9
78884;SHT31;68262;51.968;5.672;2023-03-30T07:14:02;14.6;67.2
78884;SHT31;68262;51.968;5.672;2023-03-30T07:16:32;14.6;67.3
78884;SHT31;68262;51.968;5.672;2023-03-30T07:19:01;14.6;67.5
78884;SHT31;68262;51.968;5.672;2023-03-30T07:21:32;14.6;68.0
78884;SHT31;68262;51.968;5.672;2023-03-30T07:24:02;14.6;67.9
78884;SHT31;68262;51.968;5.672;2023-03-30T07:26:31;14.7;67.3
78884;SHT31;68262;51.968;5.672;2023-03-30T07:29:01;14.7;67.3
78884;SHT31;68262;51.968;5.672;2023-03-30T07:31:33;14.8;66.5
78884;SHT31;68262;51.968;5.672;2023-03-30T07:34:03;14.8;66.2
78884;SHT31;68262;51.968;5.672;2023-03-30T07:36:34;14.9;66.1
78884;SHT31;68262;51.968;5.672;2023-03-30T07:39:03;14.9;66.2
78884;SHT31;68262;51.968;5.672;2023-03-30T07:41:34;14.9;65.3
78884;SHT31;68262;51.968;5.672;2023-03-30T07:44:04;15.0;65.3
78884;SHT31;68262;51.968;5.672;2023-03-30T07:46:33;15.0;64.9
78884;SHT31;68262;51.968;5.672;2023-03-30T07:49:03;15.1;64.1
78884;SHT31;68262;51.968;5.672;2023-03-30T07:51:32;15.1;63.8
78884;SHT31;68262;51.968;5.672;2023-03-30T07:54:02;15.1;63.5
78884;SHT31;68262;51.968;5.672;2023-03-30T07:56:34;15.2;63.4
78884;SHT31;68262;51.968;5.672;2023-03-30T07:59:06;15.2;63.0
78884;SHT31;68262;51.968;5.672;2023-03-30T08:01:36;15.2;63.3
78884;SHT31;68262;51.968;5.672;2023-03-30T08:04:06;15.3;62.8
78884;SHT31;68262;51.968;5.672;2023-03-30T08:06:36;15.3;62.2
78884;SHT31;68262;51.968;5.672;2023-03-30T08:09:06;15.3;62.1
78884;SHT31;68262;51.968;5.672;2023-03-30T08:11:35;15.3;62.1
78884;SHT31;68262;51.968;5.672;2023-03-30T08:14:05;15.4;62.5
78884;SHT31;68262;51.968;5.672;2023-03-30T08:16:34;15.4;61.7
78884;SHT31;68262;51.968;5.672;2023-03-30T08:19:04;15.4;62.7
78884;SHT31;68262;51.968;5.672;2023-03-30T08:21:34;15.5;62.2
78884;SHT31;68262;51.968;5.672;2023-03-30T08:24:04;15.5;62.0
78884;SHT31;68262;51.968;5.672;2023-03-30T08:26:34;15.6;61.6
78884;SHT31;68262;51.968;5.672;2023-03-30T08:29:03;15.6;60.9
78884;SHT31;68262;51.968;5.672;2023-03-30T08:31:33;15.7;60.4
78884;SHT31;68262;51.968;5.672;2023-03-30T08:34:03;15.7;60.4
78884;SHT31;68262;51.968;5.672;2023-03-30T08:36:34;15.7;60.7
78884;SHT31;68262;51.968;5.672;2023-03-30T08:39:04;15.7;60.6
78884;SHT31;68262;51.968;5.672;2023-03-30T08:41:55;15.8;60.6
78884;SHT31;68262;51.968;5.672;2023-03-30T08:44:32;15.8;60.9
78884;SHT31;68262;51.968;5.672;2023-03-30T08:47:05;15.8;60.2
78884;SHT31;68262;51.968;5.672;2023-03-30T08:49:41;15.8;59.9
78884;SHT31;68262;51.968;5.672;2023-03-30T08:52:20;15.9;59.7
78884;SHT31;68262;51.968;5.672;2023-03-30T08:54:51;15.9;59.2
78884;SHT31;68262;51.968;5.672;2023-03-30T08:57:37;15.9;59.3
78884;SHT31;68262;51.968;5.672;2023-03-30T09:00:17;15.9;59.2
78884;SHT31;68262;51.968;5.672;2023-03-30T09:02:59;15.9;59.4
78884;SHT31;68262;51.968;5.672;2023-03-30T09:05:37;15.9;59.9
78884;SHT31;68262;51.968;5.672;2023-03-30T09:08:16;15.8;60.2
78884;SHT31;68262;51.968;5.672;2023-03-30T09:10:50;15.8;60.7
78884;SHT31;68262;51.968;5.672;2023-03-30T09:13:25;15.8;63.3
78884;SHT31;68262;51.968;5.672;2023-03-30T09:16:02;15.7;63.5
78884;SHT31;68262;51.968;5.672;2023-03-30T09:18:34;15.7;63.8
78884;SHT31;68262;51.968;5.672;2023-03-30T09:21:11;15.6;65.8
78884;SHT31;68262;51.968;5.672;2023-03-30T09:23:42;15.7;65.0
78884;SHT31;68262;51.968;5.672;2023-03-30T09:26:19;15.8;65.8
78884;SHT31;68262;51.968;5.672;2023-03-30T09:28:59;15.9;65.7
78884;SHT31;68262;51.968;5.672;2023-03-30T09:31:35;16.2;63.5
78884;SHT31;68262;51.968;5.672;2023-03-30T09:34:17;16.4;61.1
78884;SHT31;68262;51.968;5.672;2023-03-30T09:36:56;16.6;61.0
78884;SHT31;68262;51.968;5.672;2023-03-30T09:39:29;16.8;59.6
78884;SHT31;68262;51.968;5.672;2023-03-30T09:42:15;16.9;57.7
78884;SHT31;68262;51.968;5.672;2023-03-30T09:44:51;17.0;55.5
78884;SHT31;68262;51.968;5.672;2023-03-30T09:47:24;17.1;55.3
78884;SHT31;68262;51.968;5.672;2023-03-30T09:50:00;17.1;55.1
78884;SHT31;68262;51.968;5.672;2023-03-30T09:52:32;17.2;55.1
78884;SHT31;68262;51.968;5.672;2023-03-30T09:55:28;17.2;55.7
78884;SHT31;68262;51.968;5.672;2023-03-30T09:58:12;17.3;56.2
78884;SHT31;68262;51.968;5.672;2023-03-30T10:00:44;17.5;54.6
78884;SHT31;68262;51.968;5.672;2023-03-30T10:03:20;17.6;54.2
78884;SHT31;68262;51.968;5.672;2023-03-30T10:06:00;17.7;53.7
78884;SHT31;68262;51.968;5.672;2023-03-30T10:08:31;17.8;52.0
78884;SHT31;68262;51.968;5.672;2023-03-30T10:11:01;17.9;52.0
78884;SHT31;68262;51.968;5.672;2023-03-30T10:13:36;17.9;50.5
78884;SHT31;68262;51.968;5.672;2023-03-30T10:16:10;17.9;51.4
78884;SHT31;68262;51.968;5.672;2023-03-30T10:18:43;17.9;50.6
78884;SHT31;68262;51.968;5.672;2023-03-30T10:21:19;17.8;50.8
78884;SHT31;68262;51.968;5.672;2023-03-30T10:24:02;17.8;50.6
78884;SHT31;68262;51.968;5.672;2023-03-30T10:26:36;17.7;51.0
78884;SHT31;68262;51.968;5.672;2023-03-30T10:29:12;17.6;51.7
78884;SHT31;68262;51.968;5.672;2023-03-30T10:31:46;17.5;51.2
78884;SHT31;68262;51.968;5.672;2023-03-30T10:34:20;17.5;51.5
78884;SHT31;68262;51.968;5.672;2023-03-30T10:36:52;17.5;51.6
78884;SHT31;68262;51.968;5.672;2023-03-30T10:39:28;17.5;52.1
78884;SHT31;68262;51.968;5.672;2023-03-30T10:42:00;17.5;52.2
78884;SHT31;68262;51.968;5.672;2023-03-30T10:44:33;17.5;52.3
78884;SHT31;68262;51.968;5.672;2023-03-30T10:47:23;17.6;51.8
78884;SHT31;68262;51.968;5.672;2023-03-30T10:50:05;17.6;51.6
78884;SHT31;68262;51.968;5.672;2023-03-30T10:52:47;17.5;52.1
78884;SHT31;68262;51.968;5.672;2023-03-30T10:55:22;17.5;51.2
78884;SHT31;68262;51.968;5.672;2023-03-30T10:58:03;17.5;51.6
78884;SHT31;68262;51.968;5.672;2023-03-30T11:00:49;17.5;51.4
78884;SHT31;68262;51.968;5.672;2023-03-30T11:03:24;17.6;51.8
78884;SHT31;68262;51.968;5.672;2023-03-30T11:06:00;17.6;51.8
78884;SHT31;68262;51.968;5.672;2023-03-30T11:08:36;17.7;51.3
78884;SHT31;68262;51.968;5.672;2023-03-30T11:11:13;17.7;50.4
78884;SHT31;68262;51.968;5.672;2023-03-30T11:13:48;17.7;51.1
78884;SHT31;68262;51.968;5.672;2023-03-30T11:16:22;17.8;50.5
78884;SHT31;68262;51.968;5.672;2023-03-30T11:18:58;17.9;51.1
78884;SHT31;68262;51.968;5.672;2023-03-30T11:21:36;18.0;50.5
78884;SHT31;68262;51.968;5.672;2023-03-30T11:24:15;18.1;49.1
78884;SHT31;68262;51.968;5.672;2023-03-30T11:26:50;18.1;48.4
78884;SHT31;68262;51.968;5.672;2023-03-30T11:29:26;18.1;48.3
78884;SHT31;68262;51.968;5.672;2023-03-30T11:32:10;18.1;48.5
78884;SHT31;68262;51.968;5.672;2023-03-30T11:34:52;18.1;48.7
78884;SHT31;68262;51.968;5.672;2023-03-30T11:37:28;18.0;48.6
78884;SHT31;68262;51.968;5.672;2023-03-30T11:40:12;18.0;48.3
78884;SHT31;68262;51.968;5.672;2023-03-30T11:42:39;17.9;48.5
78884;SHT31;68262;51.968;5.672;2023-03-30T11:45:19;17.9;49.0
78884;SHT31;68262;51.968;5.672;2023-03-30T11:48:11;17.9;50.0
78884;SHT31;68262;51.968;5.672;2023-03-30T11:51:02;17.9;49.9
78884;SHT31;68262;51.968;5.672;2023-03-30T11:53:42;18.0;49.0
78884;SHT31;68262;51.968;5.672;2023-03-30T11:56:23;18.0;48.8
78884;SHT31;68262;51.968;5.672;2023-03-30T11:59:02;18.1;48.6
78884;SHT31;68262;51.968;5.672;2023-03-30T12:01:45;18.1;48.2
78884;SHT31;68262;51.968;5.672;2023-03-30T12:04:27;18.2;48.1
78884;SHT31;68262;51.968;5.672;2023-03-30T12:07:00;18.2;47.8
78884;SHT31;68262;51.968;5.672;2023-03-30T12:09:33;18.2;48.5
78884;SHT31;68262;51.968;5.672;2023-03-30T12:12:09;18.3;48.7
78884;SHT31;68262;51.968;5.672;2023-03-30T12:14:58;18.3;49.0
78884;SHT31;68262;51.968;5.672;2023-03-30T12:17:35;18.3;48.9
78884;SHT31;68262;51.968;5.672;2023-03-30T12:20:20;18.3;47.9
78884;SHT31;68262;51.968;5.672;2023-03-30T12:22:57;18.3;47.2
78884;SHT31;68262;51.968;5.672;2023-03-30T12:25:39;18.3;47.6
78884;SHT31;68262;51.968;5.672;2023-03-30T12:28:13;18.3;48.2
78884;SHT31;68262;51.968;5.672;2023-03-30T12:30:45;18.4;47.1
78884;SHT31;68262;51.968;5.672;2023-03-30T12:33:28;18.4;47.8
78884;SHT31;68262;51.968;5.672;2023-03-30T12:36:03;18.5;47.9
78884;SHT31;68262;51.968;5.672;2023-03-30T12:38:40;18.5;47.8
78884;SHT31;68262;51.968;5.672;2023-03-30T12:41:14;18.6;49.0
78884;SHT31;68262;51.968;5.672;2023-03-30T12:46:03;18.9;47.8
78884;SHT31;68262;51.968;5.672;2023-03-30T12:48:40;19.2;46.9
78884;SHT31;68262;51.968;5.672;2023-03-30T12:51:24;19.4;47.0
78884;SHT31;68262;51.968;5.672;2023-03-30T12:54:17;19.5;45.3
78884;SHT31;68262;51.968;5.672;2023-03-30T12:56:57;19.6;45.2
78884;SHT31;68262;51.968;5.672;2023-03-30T12:59:49;19.7;44.8
78884;SHT31;68262;51.968;5.672;2023-03-30T13:02:38;19.7;44.4
78884;SHT31;68262;51.968;5.672;2023-03-30T13:05:23;19.6;45.8
78884;SHT31;68262;51.968;5.672;2023-03-30T13:07:55;19.6;45.5
78884;SHT31;68262;51.968;5.672;2023-03-30T13:10:38;19.6;45.3
78884;SHT31;68262;51.968;5.672;2023-03-30T13:13:17;19.7;45.8
78884;SHT31;68262;51.968;5.672;2023-03-30T13:15:49;19.7;44.9
78884;SHT31;68262;51.968;5.672;2023-03-30T13:18:37;19.7;44.6
78884;SHT31;68262;51.968;5.672;2023-03-30T13:21:20;19.7;44.2
78884;SHT31;68262;51.968;5.672;2023-03-30T13:24:23;19.6;45.0
78884;SHT31;68262;51.968;5.672;2023-03-30T13:27:11;19.4;45.7
78884;SHT31;68262;51.968;5.672;2023-03-30T13:29:53;19.3;46.2
78884;SHT31;68262;51.968;5.672;2023-03-30T13:32:30;19.2;46.5
78884;SHT31;68262;51.968;5.672;2023-03-30T13:35:25;19.1;47.5
78884;SHT31;68262;51.968;5.672;2023-03-30T13:38:35;19.1;46.4
78884;SHT31;68262;51.968;5.672;2023-03-30T13:41:24;19.1;47.0
78884;SHT31;68262;51.968;5.672;2023-03-30T13:44:08;19.1;47.1
78884;SHT31;68262;51.968;5.672;2023-03-30T13:46:49;19.1;47.0
78884;SHT31;68262;51.968;5.672;2023-03-30T13:49:34;19.1;49.0
78884;SHT31;68262;51.968;5.672;2023-03-30T13:52:11;19.1;47.2
78884;SHT31;68262;51.968;5.672;2023-03-30T13:54:42;19.1;46.1
78884;SHT31;68262;51.968;5.672;2023-03-30T13:57:17;19.2;46.3
78884;SHT31;68262;51.968;5.672;2023-03-30T13:59:51;19.3;45.4
78884;SHT31;68262;51.968;5.672;2023-03-30T14:02:24;19.6;45.2
78884;SHT31;68262;51.968;5.672;2023-03-30T14:05:12;19.9;44.7
78884;SHT31;68262;51.968;5.672;2023-03-30T14:07:45;20.0;42.9
78884;SHT31;68262;51.968;5.672;2023-03-30T14:10:17;20.1;42.8
78884;SHT31;68262;51.968;5.672;2023-03-30T14:12:51;20.1;42.2
78884;SHT31;68262;51.968;5.672;2023-03-30T14:15:26;20.1;42.6
78884;SHT31;68262;51.968;5.672;2023-03-30T14:17:58;20.4;42.7
78884;SHT31;68262;51.968;5.672;2023-03-30T14:20:45;20.8;41.7
78884;SHT31;68262;51.968;5.672;2023-03-30T14:23:19;21.1;40.4
78884;SHT31;68262;51.968;5.672;2023-03-30T14:25:57;21.1;40.4
78884;SHT31;68262;51.968;5.672;2023-03-30T14:28:30;21.1;40.7
78884;SHT31;68262;51.968;5.672;2023-03-30T14:31:09;21.1;40.5
78884;SHT31;68262;51.968;5.672;2023-03-30T14:33:39;21.0;41.1
78884;SHT31;68262;51.968;5.672;2023-03-30T14:36:12;20.8;41.6
78884;SHT31;68262;51.968;5.672;2023-03-30T14:38:45;20.6;42.2
78884;SHT31;68262;51.968;5.672;2023-03-30T14:41:19;20.5;42.3
78884;SHT31;68262;51.968;5.672;2023-03-30T14:43:54;20.3;43.8
78884;SHT31;68262;51.968;5.672;2023-03-30T14:46:29;20.2;43.4
78884;SHT31;68262;51.968;5.672;2023-03-30T14:49:00;20.2;43.5
78884;SHT31;68262;51.968;5.672;2023-03-30T14:51:36;20.1;43.8
78884;SHT31;68262;51.968;5.672;2023-03-30T14:54:12;20.1;44.1
78884;SHT31;68262;51.968;5.672;2023-03-30T14:56:49;20.0;43.1
78884;SHT31;68262;51.968;5.672;2023-03-30T14:59:20;19.9;43.0
78884;SHT31;68262;51.968;5.672;2023-03-30T15:01:50;19.9;43.2
78884;SHT31;68262;51.968;5.672;2023-03-30T15:04:23;19.8;44.0
78884;SHT31;68262;51.968;5.672;2023-03-30T15:06:54;19.8;44.7
78884;SHT31;68262;51.968;5.672;2023-03-30T15:09:24;19.8;44.7
78884;SHT31;68262;51.968;5.672;2023-03-30T15:11:57;19.9;44.0
78884;SHT31;68262;51.968;5.672;2023-03-30T15:14:32;20.0;44.0
78884;SHT31;68262;51.968;5.672;2023-03-30T15:17:09;20.1;43.0
78884;SHT31;68262;51.968;5.672;2023-03-30T15:19:40;20.1;42.4
78884;SHT31;68262;51.968;5.672;2023-03-30T15:22:20;20.1;42.3
78884;SHT31;68262;51.968;5.672;2023-03-30T15:24:53;20.1;42.7
78884;SHT31;68262;51.968;5.672;2023-03-30T15:27:23;20.1;43.0
78884;SHT31;68262;51.968;5.672;2023-03-30T15:29:55;20.1;43.0
78884;SHT31;68262;51.968;5.672;2023-03-30T15:32:30;20.1;42.9
78884;SHT31;68262;51.968;5.672;2023-03-30T15:35:05;20.0;43.1
78884;SHT31;68262;51.968;5.672;2023-03-30T15:37:37;19.9;43.8
78884;SHT31;68262;51.968;5.672;2023-03-30T15:40:30;19.8;44.6
78884;SHT31;68262;51.968;5.672;2023-03-30T15:43:13;19.8;44.4
78884;SHT31;68262;51.968;5.672;2023-03-30T15:45:47;19.7;43.9
78884;SHT31;68262;51.968;5.672;2023-03-30T15:48:19;19.7;42.8
78884;SHT31;68262;51.968;5.672;2023-03-30T15:50:53;19.7;42.7
78884;SHT31;68262;51.968;5.672;2023-03-30T15:53:32;19.6;42.8
78884;SHT31;68262;51.968;5.672;2023-03-30T15:56:03;19.5;42.9
78884;SHT31;68262;51.968;5.672;2023-03-30T15:58:35;19.4;43.3
78884;SHT31;68262;51.968;5.672;2023-03-30T16:01:08;19.4;43.7
78884;SHT31;68262;51.968;5.672;2023-03-30T16:03:38;19.3;44.3
78884;SHT31;68262;51.968;5.672;2023-03-30T16:06:20;19.3;44.4
78884;SHT31;68262;51.968;5.672;2023-03-30T16:08:50;19.3;44.4
78884;SHT31;68262;51.968;5.672;2023-03-30T16:11:20;19.3;44.7
78884;SHT31;68262;51.968;5.672;2023-03-30T16:13:52;19.4;44.2
78884;SHT31;68262;51.968;5.672;2023-03-30T16:16:22;19.4;43.6
78884;SHT31;68262;51.968;5.672;2023-03-30T16:18:52;19.4;44.3
78884;SHT31;68262;51.968;5.672;2023-03-30T16:21:22;19.5;43.5
78884;SHT31;68262;51.968;5.672;2023-03-30T16:23:52;19.5;43.6
78884;SHT31;68262;51.968;5.672;2023-03-30T16:26:21;19.5;43.5
78884;SHT31;68262;51.968;5.672;2023-03-30T16:28:53;19.5;43.4
78884;SHT31;68262;51.968;5.672;2023-03-30T16:31:23;19.5;43.6
78884;SHT31;68262;51.968;5.672;2023-03-30T16:33:54;19.5;43.3
78884;SHT31;68262;51.968;5.672;2023-03-30T16:36:24;19.4;43.8
78884;SHT31;68262;51.968;5.672;2023-03-30T16:38:54;19.4;44.1
78884;SHT31;68262;51.968;5.672;2023-03-30T16:41:23;19.4;43.8
78884;SHT31;68262;51.968;5.672;2023-03-30T16:43:53;19.4;44.1
78884;SHT31;68262;51.968;5.672;2023-03-30T16:46:22;19.4;44.0
78884;SHT31;68262;51.968;5.672;2023-03-30T16:48:52;19.3;44.1
78884;SHT31;68262;51.968;5.672;2023-03-30T16:51:22;19.3;44.3
78884;SHT31;68262;51.968;5.672;2023-03-30T16:53:51;19.3;44.4
78884;SHT31;68262;51.968;5.672;2023-03-30T16:56:21;19.2;44.5
78884;SHT31;68262;51.968;5.672;2023-03-30T16:58:50;19.2;44.6
78884;SHT31;68262;51.968;5.672;2023-03-30T17:01:20;19.1;45.2
78884;SHT31;68262;51.968;5.672;2023-03-30T17:03:49;19.0;45.5
78884;SHT31;68262;51.968;5.672;2023-03-30T17:06:19;18.9;46.1